Time,TemperatureF,DewpointF,PressureIn,WindDirection,WindDirectionDegrees,WindSpeedMPH,WindSpeedGustMPH,Humidity,HourlyPrecipIn,Conditions,Clouds,dailyrainin,SolarRadiationWatts/m^2,SoftwareType,DateUTC
2013-02-09 00:00:00,15.0,12.3,29.87,NW,314,7.0,13.0,89,0.00,CLR,,0.00,0.0,WeatherDisplay:10.37,2013-02-09 05:00:00,
2013-02-09 00:02:00,15.0,12.1,29.87,NNW,329,16.1,16.1,88,0.00,CLR,,0.00,0.0,WeatherDisplay:10.37,2013-02-09 05:02:00,
2013-02-09 00:07:00,15.0,12.3,29.85,WNW,292,19.0,19.0,89,0.00,CLR,,0.00,0.0,WeatherDisplay:10.37,2013-02-09 05:07:00,
2013-02-09 00:12:00,15.0,12.1,29.85,WNW,300,15.0,15.0,88,0.00,CLR,,0.00,0.0,WeatherDisplay:10.37,2013-02-09 05:12:00,
2013-02-09 00:17:00,14.9,12.2,29.85,NW,311,9.2,10.2,89,0.00,CLR,,0.00,0.0,WeatherDisplay:10.37,2013-02-09 05:17:00,
2013-02-09 00:22:00,14.9,12.2,29.83,NE,36,11.5,14.9,89,0.00,CLR,,0.00,0.0,WeatherDisplay:10.37,2013-02-09 05:22:00,
2013-02-09 00:27:00,14.9,12.2,29.83,North,349,10.4,10.4,89,0.00,CLR,,0.00,0.0,WeatherDisplay:10.37,2013-02-09 05:27:00,
2013-02-09 00:32:00,14.9,12.2,29.83,NW,310,15.0,15.0,89,0.00,CLR,,0.00,0.0,WeatherDisplay:10.37,2013-02-09 05:32:00,
2013-02-09 00:37:00,14.9,12.2,29.82,NNW,342,11.5,11.5,89,0.00,CLR,,0.00,0.0,WeatherDisplay:10.37,2013-02-09 05:37:00,
2013-02-09 00:42:00,14.9,12.2,29.82,NW,311,12.7,12.7,89,0.00,CLR,,0.00,0.0,WeatherDisplay:10.37,2013-02-09 05:42:00,
2013-02-09 00:47:00,15.0,12.3,29.82,NW,308,12.7,12.7,89,0.00,CLR,,0.00,0.0,WeatherDisplay:10.37,2013-02-09 05:47:00,
2013-02-09 00:52:00,15.0,12.3,29.80,WNW,297,15.0,15.0,89,0.00,CLR,,0.00,0.0,WeatherDisplay:10.37,2013-02-09 05:52:00,
2013-02-09 00:57:00,15.1,12.4,29.80,WNW,290,20.7,20.7,89,0.00,CLR,,0.00,0.0,WeatherDisplay:10.37,2013-02-09 05:57:00,
2013-02-09 01:02:00,15.2,12.5,29.80,NW,306,12.7,12.7,89,0.00,CLR,,0.00,0.0,WeatherDisplay:10.37,2013-02-09 06:02:00,
2013-02-09 01:07:00,15.2,12.5,29.78,WNW,298,12.7,12.7,89,0.00,CLR,,0.00,0.0,WeatherDisplay:10.37,2013-02-09 06:07:00,
2013-02-09 01:12:00,15.2,12.5,29.78,NNW,344,11.5,11.5,89,0.00,CLR,,0.00,0.0,WeatherDisplay:10.37,2013-02-09 06:12:00,
2013-02-09 01:17:00,15.3,12.6,29.78,NW,314,15.0,15.0,89,0.00,CLR,,0.00,0.0,WeatherDisplay:10.37,2013-02-09 06:17:00,
2013-02-09 01:22:00,15.4,12.7,29.78,NNE,19,20.7,20.7,89,0.00,CLR,,0.00,0.0,WeatherDisplay:10.37,2013-02-09 06:22:00,
2013-02-09 01:28:00,15.5,12.8,29.78,NW,319,11.5,11.5,89,0.00,CLR,,0.00,0.0,WeatherDisplay:10.37,2013-02-09 06:28:00,
2013-02-09 01:33:00,15.5,12.8,29.78,NNW,346,10.4,11.0,89,0.00,CLR,,0.00,0.0,WeatherDisplay:10.37,2013-02-09 06:33:00,
2013-02-09 01:38:00,15.5,12.8,29.78,NNW,331,5.8,5.8,89,0.00,CLR,,0.00,0.0,WeatherDisplay:10.37,2013-02-09 06:38:00,
2013-02-09 01:43:00,15.5,12.8,29.78,WNW,296,11.5,11.5,89,0.00,CLR,,0.00,0.0,WeatherDisplay:10.37,2013-02-09 06:43:00,
2013-02-09 01:48:00,15.5,12.8,29.78,WNW,291,11.5,11.5,89,0.00,CLR,,0.00,0.0,WeatherDisplay:10.37,2013-02-09 06:48:00,
2013-02-09 01:53:00,15.4,12.7,29.77,WNW,303,13.8,13.8,89,0.00,CLR,,0.00,0.0,WeatherDisplay:10.37,2013-02-09 06:53:00,
2013-02-09 01:58:00,15.4,12.7,29.77,NW,306,11.5,11.5,89,0.00,CLR,,0.00,0.0,WeatherDisplay:10.37,2013-02-09 06:58:00,
2013-02-09 02:03:00,15.5,12.8,29.77,WNW,297,11.5,11.5,89,0.00,CLR,,0.00,0.0,WeatherDisplay:10.37,2013-02-09 07:03:00,
2013-02-09 02:08:00,15.4,12.7,29.75,WNW,299,13.8,13.8,89,0.00,CLR,,0.00,0.0,WeatherDisplay:10.37,2013-02-09 07:08:00,
2013-02-09 02:13:00,15.4,13.0,29.75,WNW,296,11.5,11.5,90,0.00,CLR,,0.00,0.0,WeatherDisplay:10.37,2013-02-09 07:13:00,
2013-02-09 02:18:00,15.3,12.9,29.75,NW,324,16.1,16.1,90,0.00,CLR,,0.00,0.0,WeatherDisplay:10.37,2013-02-09 07:18:00,
2013-02-09 02:23:00,15.2,12.8,29.74,NNW,329,11.5,11.5,90,0.00,CLR,,0.00,0.0,WeatherDisplay:10.37,2013-02-09 07:23:00,
2013-02-09 02:28:00,15.2,12.8,29.74,West,281,6.9,6.9,90,0.00,CLR,,0.00,0.0,WeatherDisplay:10.37,2013-02-09 07:28:00,
2013-02-09 02:33:00,15.2,12.8,29.74,NW,307,6.9,6.9,90,0.00,CLR,,0.00,0.0,WeatherDisplay:10.37,2013-02-09 07:33:00,
2013-02-09 02:38:00,15.2,12.8,29.76,WNW,298,6.9,6.9,90,0.00,CLR,,0.00,0.0,WeatherDisplay:10.37,2013-02-09 07:38:00,
2013-02-09 02:43:00,15.3,12.9,29.76,NW,322,11.5,11.5,90,0.00,CLR,,0.00,0.0,WeatherDisplay:10.37,2013-02-09 07:43:00,
2013-02-09 02:48:00,15.3,12.9,29.76,NW,305,11.5,11.5,90,0.00,CLR,,0.00,0.0,WeatherDisplay:10.37,2013-02-09 07:48:00,
2013-02-09 02:53:00,15.3,12.9,29.75,WNW,298,11.5,11.5,90,0.00,CLR,,0.00,0.0,WeatherDisplay:10.37,2013-02-09 07:53:00,
2013-02-09 02:58:00,15.3,12.9,29.75,NW,321,25.3,25.3,90,0.00,CLR,,0.00,0.0,WeatherDisplay:10.37,2013-02-09 07:58:00,
2013-02-09 03:03:00,15.4,13.0,29.75,WNW,284,16.1,16.1,90,0.00,CLR,,0.00,0.0,WeatherDisplay:10.37,2013-02-09 08:03:00,
2013-02-09 03:08:00,15.3,12.9,29.74,WNW,298,12.7,12.7,90,0.00,CLR,,0.00,0.0,WeatherDisplay:10.37,2013-02-09 08:08:00,
2013-02-09 03:13:00,15.3,12.9,29.74,WNW,296,9.2,9.2,90,0.00,CLR,,0.00,0.0,WeatherDisplay:10.37,2013-02-09 08:13:00,
2013-02-09 03:18:00,15.4,13.0,29.74,NW,325,17.3,17.3,90,0.00,CLR,,0.00,0.0,WeatherDisplay:10.37,2013-02-09 08:18:00,
2013-02-09 03:23:00,15.4,13.0,29.74,WNW,303,11.5,11.5,90,0.00,CLR,,0.00,0.0,WeatherDisplay:10.37,2013-02-09 08:23:00,
2013-02-09 03:28:00,15.4,13.0,29.74,WNW,291,11.5,11.5,90,0.00,CLR,,0.00,0.0,WeatherDisplay:10.37,2013-02-09 08:28:00,
2013-02-09 03:33:00,15.5,13.1,29.74,NW,320,12.0,12.0,90,0.00,CLR,,0.00,0.0,WeatherDisplay:10.37,2013-02-09 08:33:00,
2013-02-09 03:38:00,15.6,13.2,29.74,NNW,334,12.7,12.7,90,0.00,CLR,,0.00,0.0,WeatherDisplay:10.37,2013-02-09 08:38:00,
2013-02-09 03:43:00,15.7,13.3,29.74,NW,325,16.1,16.1,90,0.00,CLR,,0.00,0.0,WeatherDisplay:10.37,2013-02-09 08:43:00,
2013-02-09 03:48:00,15.9,13.5,29.74,NW,325,24.2,24.2,90,0.00,CLR,,0.00,0.0,WeatherDisplay:10.37,2013-02-09 08:48:00,
2013-02-09 03:53:00,16.0,13.6,29.74,NNE,32,15.0,15.0,90,0.00,CLR,,0.00,0.0,WeatherDisplay:10.37,2013-02-09 08:53:00,
2013-02-09 03:58:00,16.1,13.7,29.74,NNW,340,17.3,17.3,90,0.00,CLR,,0.00,0.0,WeatherDisplay:10.37,2013-02-09 08:58:00,
2013-02-09 04:03:00,16.2,13.8,29.74,NW,307,13.8,13.8,90,0.00,CLR,,0.00,0.0,WeatherDisplay:10.37,2013-02-09 09:03:00,
2013-02-09 04:08:00,16.2,13.8,29.73,WNW,302,15.0,15.0,90,0.00,CLR,,0.00,0.0,WeatherDisplay:10.37,2013-02-09 09:08:00,
2013-02-09 04:13:00,16.2,13.8,29.73,NW,322,18.4,18.4,90,0.00,CLR,,0.00,0.0,WeatherDisplay:10.37,2013-02-09 09:13:00,
2013-02-09 04:18:00,16.2,13.8,29.73,NE,46,21.9,21.9,90,0.00,CLR,,0.00,0.0,WeatherDisplay:10.37,2013-02-09 09:18:00,
2013-02-09 04:23:00,16.2,13.8,29.74,WNW,292,20.7,20.7,90,0.00,CLR,,0.00,0.0,WeatherDisplay:10.37,2013-02-09 09:23:00,
2013-02-09 04:28:00,16.3,13.9,29.74,NNE,13,17.3,17.3,90,0.00,CLR,,0.00,0.0,WeatherDisplay:10.37,2013-02-09 09:28:00,
2013-02-09 04:33:00,16.3,13.9,29.74,WNW,296,23.0,23.0,90,0.00,CLR,,0.00,0.0,WeatherDisplay:10.37,2013-02-09 09:33:00,
2013-02-09 04:38:00,16.3,13.9,29.73,NNW,328,13.8,13.8,90,0.00,CLR,,0.00,0.0,WeatherDisplay:10.37,2013-02-09 09:38:00,
2013-02-09 04:43:00,16.3,13.9,29.73,WNW,299,20.7,20.7,90,0.00,CLR,,0.00,0.0,WeatherDisplay:10.37,2013-02-09 09:43:00,
2013-02-09 04:48:00,16.3,13.9,29.73,NW,310,16.1,16.1,90,0.00,CLR,,0.00,0.0,WeatherDisplay:10.37,2013-02-09 09:48:00,
2013-02-09 04:53:00,16.2,13.8,29.73,NW,304,11.5,11.5,90,0.00,CLR,,0.00,0.0,WeatherDisplay:10.37,2013-02-09 09:53:00,
2013-02-09 04:58:00,16.0,13.6,29.73,West,281,19.0,19.0,90,0.00,CLR,,0.00,0.0,WeatherDisplay:10.37,2013-02-09 09:58:00,
2013-02-09 05:03:00,15.9,13.5,29.73,NW,324,23.0,23.0,90,0.00,CLR,,0.00,0.0,WeatherDisplay:10.37,2013-02-09 10:03:00,
2013-02-09 05:08:00,15.8,13.4,29.73,NW,315,11.5,11.5,90,0.00,CLR,,0.00,0.0,WeatherDisplay:10.37,2013-02-09 10:08:00,
2013-02-09 05:13:00,15.7,13.3,29.73,NW,317,17.3,17.3,90,0.00,CLR,,0.00,0.0,WeatherDisplay:10.37,2013-02-09 10:13:00,
2013-02-09 05:18:00,15.7,13.3,29.73,West,273,19.6,19.6,90,0.00,CLR,,0.00,0.0,WeatherDisplay:10.37,2013-02-09 10:18:00,
2013-02-09 05:23:00,15.6,13.2,29.72,NW,307,19.6,19.6,90,0.00,CLR,,0.00,0.0,WeatherDisplay:10.37,2013-02-09 10:23:00,
2013-02-09 05:28:00,15.5,13.1,29.72,WNW,284,17.3,17.3,90,0.00,CLR,,0.00,0.0,WeatherDisplay:10.37,2013-02-09 10:28:00,
2013-02-09 05:33:00,15.5,13.1,29.72,West,275,17.3,17.3,90,0.00,CLR,,0.00,0.0,WeatherDisplay:10.37,2013-02-09 10:33:00,
2013-02-09 05:38:00,15.5,13.1,29.72,NW,319,19.6,19.6,90,0.00,CLR,,0.00,0.0,WeatherDisplay:10.37,2013-02-09 10:38:00,
2013-02-09 05:43:00,15.5,13.1,29.72,NW,319,15.0,15.0,90,0.00,CLR,,0.00,0.0,WeatherDisplay:10.37,2013-02-09 10:43:00,
2013-02-09 05:48:00,15.4,13.0,29.72,WNW,298,17.3,17.3,90,0.00,CLR,,0.00,0.0,WeatherDisplay:10.37,2013-02-09 10:48:00,
2013-02-09 05:53:00,15.4,13.0,29.71,West,268,13.8,13.8,90,0.00,CLR,,0.00,0.0,WeatherDisplay:10.37,2013-02-09 10:53:00,
2013-02-09 05:58:00,15.4,13.0,29.71,NW,306,15.0,15.0,90,0.00,CLR,,0.00,0.0,WeatherDisplay:10.37,2013-02-09 10:58:00,
2013-02-09 06:03:00,15.3,12.9,29.71,WNW,288,17.3,17.3,90,0.00,CLR,,0.00,0.0,WeatherDisplay:10.37,2013-02-09 11:03:00,
2013-02-09 06:08:00,15.3,12.9,29.70,NW,309,16.1,16.1,90,0.00,CLR,,0.00,0.0,WeatherDisplay:10.37,2013-02-09 11:08:00,
2013-02-09 06:13:00,15.3,12.9,29.70,NW,304,17.3,17.3,90,0.00,CLR,,0.00,0.0,WeatherDisplay:10.37,2013-02-09 11:13:00,
2013-02-09 06:18:00,15.3,12.9,29.70,NNW,334,26.5,26.5,90,0.00,CLR,,0.00,0.0,WeatherDisplay:10.37,2013-02-09 11:18:00,
2013-02-09 06:23:00,15.2,12.8,29.71,WNW,298,11.5,11.5,90,0.00,CLR,,0.00,0.0,WeatherDisplay:10.37,2013-02-09 11:23:00,
2013-02-09 06:28:00,15.2,12.8,29.71,NW,309,12.7,12.7,90,0.00,CLR,,0.00,0.0,WeatherDisplay:10.37,2013-02-09 11:28:00,
2013-02-09 06:33:00,15.1,12.7,29.71,NW,312,25.3,25.3,90,0.00,CLR,,0.00,0.0,WeatherDisplay:10.37,2013-02-09 11:33:00,
2013-02-09 06:38:00,15.1,12.7,29.71,North,360,15.0,15.0,90,0.00,CLR,,0.00,0.0,WeatherDisplay:10.37,2013-02-09 11:38:00,
2013-02-09 06:43:00,15.1,12.7,29.71,NW,310,21.9,21.9,90,0.00,CLR,,0.00,0.0,WeatherDisplay:10.37,2013-02-09 11:43:00,
2013-02-09 06:48:00,15.2,12.8,29.71,WNW,292,13.8,13.8,90,0.00,CLR,,0.00,0.0,WeatherDisplay:10.37,2013-02-09 11:48:00,
2013-02-09 06:53:00,15.2,12.8,29.71,WNW,303,21.9,21.9,90,0.00,CLR,,0.00,0.0,WeatherDisplay:10.37,2013-02-09 11:53:00,
2013-02-09 06:58:00,15.3,12.9,29.71,NNW,344,16.1,16.1,90,0.00,CLR,,0.00,0.0,WeatherDisplay:10.37,2013-02-09 11:58:00,
2013-02-09 07:03:00,15.3,12.9,29.71,WNW,291,19.6,19.6,90,0.00,BKN,,0.00,5.0,WeatherDisplay:10.37,2013-02-09 12:03:00,
2013-02-09 07:08:00,15.3,12.9,29.71,NW,309,26.5,26.5,90,0.00,BKN,,0.00,5.0,WeatherDisplay:10.37,2013-02-09 12:08:00,
2013-02-09 07:13:00,15.4,13.0,29.71,WNW,288,23.0,23.0,90,0.00,BKN,,0.00,7.0,WeatherDisplay:10.37,2013-02-09 12:13:00,
2013-02-09 07:18:00,15.4,13.0,29.71,WNW,294,24.2,24.2,90,0.00,BKN,,0.00,7.0,WeatherDisplay:10.37,2013-02-09 12:18:00,
2013-02-09 07:23:00,15.4,13.0,29.72,WNW,299,19.6,19.6,90,0.00,BKN,,0.00,7.0,WeatherDisplay:10.37,2013-02-09 12:23:00,
2013-02-09 07:28:00,15.4,13.0,29.72,WNW,299,15.0,15.0,90,0.00,BKN,,0.00,9.0,WeatherDisplay:10.37,2013-02-09 12:28:00,
2013-02-09 07:33:00,15.5,13.1,29.72,WNW,303,23.0,23.0,90,0.00,BKN,,0.00,12.0,WeatherDisplay:10.37,2013-02-09 12:33:00,
2013-02-09 07:38:00,15.5,13.1,29.72,NW,311,20.7,20.7,90,0.00,BKN,,0.00,16.0,WeatherDisplay:10.37,2013-02-09 12:38:00,
2013-02-09 07:43:00,15.6,13.2,29.72,WNW,302,20.7,20.7,90,0.00,BKN,,0.00,18.0,WeatherDisplay:10.37,2013-02-09 12:43:00,
2013-02-09 07:48:00,15.6,13.2,29.72,NW,322,12.0,13.4,90,0.00,BKN,,0.00,16.0,WeatherDisplay:10.37,2013-02-09 12:48:00,
2013-02-09 07:53:00,15.6,13.2,29.72,West,280,22.0,22.0,90,0.00,BKN,,0.00,16.0,WeatherDisplay:10.37,2013-02-09 12:53:00,
2013-02-09 07:58:00,15.6,13.2,29.72,West,273,19.6,19.6,90,0.00,BKN,,0.00,18.0,WeatherDisplay:10.37,2013-02-09 12:58:00,
2013-02-09 08:03:00,15.6,13.2,29.72,NW,305,18.4,18.4,90,0.00,BKN,,0.00,18.0,WeatherDisplay:10.37,2013-02-09 13:03:00,
2013-02-09 08:08:00,15.7,13.3,29.72,WNW,283,18.4,18.4,90,0.00,BKN,,0.00,21.0,WeatherDisplay:10.37,2013-02-09 13:08:00,
2013-02-09 08:13:00,15.8,13.4,29.72,WNW,298,24.0,24.0,90,0.00,BKN,,0.00,19.0,WeatherDisplay:10.37,2013-02-09 13:13:00,
2013-02-09 08:18:00,15.9,13.5,29.72,West,269,19.6,19.6,90,0.00,BKN,,0.00,21.0,WeatherDisplay:10.37,2013-02-09 13:18:00,
2013-02-09 08:23:00,16.0,13.6,29.71,West,275,17.3,17.3,90,0.00,BKN,,0.00,25.0,WeatherDisplay:10.37,2013-02-09 13:23:00,
2013-02-09 08:28:00,16.2,13.8,29.71,WNW,301,16.1,16.1,90,0.00,BKN,,0.00,25.0,WeatherDisplay:10.37,2013-02-09 13:28:00,
2013-02-09 08:33:00,16.3,13.9,29.71,NW,316,18.4,18.4,90,0.00,BKN,,0.00,26.0,WeatherDisplay:10.37,2013-02-09 13:33:00,
2013-02-09 08:38:00,16.4,14.0,29.72,NW,311,16.1,16.1,90,0.00,BKN,,0.00,33.0,WeatherDisplay:10.37,2013-02-09 13:38:00,
2013-02-09 08:43:00,16.5,14.1,29.72,NW,309,11.5,11.5,90,0.00,BKN,,0.00,37.0,WeatherDisplay:10.37,2013-02-09 13:43:00,
2013-02-09 08:49:00,16.6,14.2,29.72,WNW,299,18.4,18.4,90,0.00,BKN,,0.00,39.0,WeatherDisplay:10.37,2013-02-09 13:49:00,
2013-02-09 08:54:00,16.7,14.3,29.72,NW,310,16.1,16.1,90,0.00,BKN,,0.00,46.0,WeatherDisplay:10.37,2013-02-09 13:54:00,
2013-02-09 08:59:00,16.8,14.4,29.72,West,279,12.0,12.0,90,0.00,BKN,,0.00,51.0,WeatherDisplay:10.37,2013-02-09 13:59:00,
2013-02-09 09:04:00,16.8,14.4,29.72,West,275,12.7,12.7,90,0.00,BKN,,0.00,53.0,WeatherDisplay:10.37,2013-02-09 14:04:00,
2013-02-09 09:09:00,16.9,14.5,29.73,WNW,299,12.7,12.7,90,0.00,BKN,,0.00,56.0,WeatherDisplay:10.37,2013-02-09 14:09:00,
2013-02-09 09:14:00,17.0,14.6,29.73,WNW,288,11.5,11.5,90,0.00,BKN,,0.00,58.0,WeatherDisplay:10.37,2013-02-09 14:14:00,
2013-02-09 09:19:00,17.1,14.7,29.73,NW,309,12.7,12.7,90,0.00,BKN,,0.00,60.0,WeatherDisplay:10.37,2013-02-09 14:19:00,
2013-02-09 09:24:00,17.2,14.8,29.73,WNW,300,12.7,12.7,90,0.00,BKN,,0.00,65.0,WeatherDisplay:10.37,2013-02-09 14:24:00,
2013-02-09 09:29:00,17.3,14.9,29.73,NW,306,18.4,18.4,90,0.00,BKN,,0.00,67.0,WeatherDisplay:10.37,2013-02-09 14:29:00,
2013-02-09 09:34:00,17.4,15.0,29.73,WNW,298,13.8,13.8,90,0.00,BKN,,0.00,63.0,WeatherDisplay:10.37,2013-02-09 14:34:00,
2013-02-09 09:39:00,17.5,15.1,29.74,NW,320,19.6,19.6,90,0.00,BKN,,0.00,60.0,WeatherDisplay:10.37,2013-02-09 14:39:00,
2013-02-09 09:44:00,17.5,15.1,29.74,WNW,296,15.0,15.0,90,0.00,BKN,,0.00,65.0,WeatherDisplay:10.37,2013-02-09 14:44:00,
2013-02-09 09:49:00,17.5,15.1,29.74,WNW,294,12.7,12.7,90,0.00,BKN,,0.00,70.0,WeatherDisplay:10.37,2013-02-09 14:49:00,
2013-02-09 09:54:00,17.6,15.2,29.75,NNW,329,10.4,10.4,90,0.00,BKN,,0.00,72.0,WeatherDisplay:10.37,2013-02-09 14:54:00,
2013-02-09 09:59:00,17.7,15.3,29.75,NW,321,13.8,13.8,90,0.00,BKN,,0.00,72.0,WeatherDisplay:10.37,2013-02-09 14:59:00,
2013-02-09 10:04:00,17.7,15.3,29.75,WNW,298,15.0,15.0,90,0.00,BKN,,0.00,72.0,WeatherDisplay:10.37,2013-02-09 15:04:00,
2013-02-09 10:09:00,17.7,15.3,29.75,WNW,298,19.6,19.6,90,0.00,BKN,,0.00,76.0,WeatherDisplay:10.37,2013-02-09 15:09:00,
2013-02-09 10:14:00,17.7,15.3,29.75,WNW,286,16.1,16.1,90,0.00,BKN,,0.00,77.0,WeatherDisplay:10.37,2013-02-09 15:14:00,
2013-02-09 10:19:00,17.8,15.4,29.75,WNW,296,17.3,17.3,90,0.00,BKN,,0.00,83.0,WeatherDisplay:10.37,2013-02-09 15:19:00,
2013-02-09 10:24:00,17.9,15.5,29.75,West,267,11.5,11.5,90,0.00,BKN,,0.00,83.0,WeatherDisplay:10.37,2013-02-09 15:24:00,
2013-02-09 10:29:00,18.0,15.6,29.75,WNW,290,16.1,16.1,90,0.00,BKN,,0.00,81.0,WeatherDisplay:10.37,2013-02-09 15:29:00,
2013-02-09 10:34:00,17.9,15.5,29.75,NW,318,19.6,19.6,90,0.00,BKN,,0.00,84.0,WeatherDisplay:10.37,2013-02-09 15:34:00,
2013-02-09 10:39:00,17.8,15.4,29.76,West,279,20.7,20.7,90,0.00,BKN,,0.00,91.0,WeatherDisplay:10.37,2013-02-09 15:39:00,
2013-02-09 10:44:00,17.7,15.3,29.76,WNW,301,21.9,21.9,90,0.00,BKN,,0.00,102.0,WeatherDisplay:10.37,2013-02-09 15:44:00,
2013-02-09 10:49:00,17.7,15.3,29.76,West,280,22.0,22.0,90,0.00,BKN,,0.00,113.0,WeatherDisplay:10.37,2013-02-09 15:49:00,
2013-02-09 10:54:00,17.7,15.3,29.76,WNW,295,24.2,24.2,90,0.00,BKN,,0.00,125.0,WeatherDisplay:10.37,2013-02-09 15:54:00,
2013-02-09 10:59:00,17.7,15.0,29.76,WNW,286,17.3,17.3,89,0.00,BKN,,0.00,134.0,WeatherDisplay:10.37,2013-02-09 15:59:00,
2013-02-09 11:04:00,17.8,15.4,29.76,WNW,295,6.9,6.9,90,0.00,BKN,,0.00,148.0,WeatherDisplay:10.37,2013-02-09 16:04:00,
2013-02-09 11:09:00,17.9,15.5,29.77,West,261,11.5,11.5,90,0.00,BKN,,0.00,160.0,WeatherDisplay:10.37,2013-02-09 16:09:00,
2013-02-09 11:14:00,17.9,15.5,29.77,WNW,290,16.1,16.1,90,0.00,BKN,,0.00,163.0,WeatherDisplay:10.37,2013-02-09 16:14:00,
2013-02-09 11:19:00,17.7,15.0,29.77,WNW,303,11.5,11.5,89,0.00,BKN,,0.00,172.0,WeatherDisplay:10.37,2013-02-09 16:19:00,
2013-02-09 11:24:00,17.7,15.0,29.77,West,278,13.8,13.8,89,0.00,BKN,,0.00,181.0,WeatherDisplay:10.37,2013-02-09 16:24:00,
2013-02-09 11:29:00,17.7,15.0,29.77,WNW,298,16.1,16.1,89,0.00,BKN,,0.00,188.0,WeatherDisplay:10.37,2013-02-09 16:29:00,
2013-02-09 11:34:00,17.8,15.1,29.77,WNW,284,13.8,13.8,89,0.00,BKN,,0.00,195.0,WeatherDisplay:10.37,2013-02-09 16:34:00,
2013-02-09 11:39:00,17.9,15.2,29.78,WSW,242,11.5,11.5,89,0.00,BKN,,0.00,193.0,WeatherDisplay:10.37,2013-02-09 16:39:00,
2013-02-09 11:44:00,17.9,15.2,29.78,West,274,17.3,17.3,89,0.00,BKN,,0.00,188.0,WeatherDisplay:10.37,2013-02-09 16:44:00,
2013-02-09 11:49:00,18.0,15.3,29.78,West,280,11.5,11.5,89,0.00,BKN,,0.00,190.0,WeatherDisplay:10.37,2013-02-09 16:49:00,
2013-02-09 11:54:00,18.1,15.4,29.77,WNW,294,14.0,14.0,89,0.00,BKN,,0.00,195.0,WeatherDisplay:10.37,2013-02-09 16:54:00,
2013-02-09 11:59:00,18.1,15.1,29.77,NW,308,18.4,18.4,88,0.00,BKN,,0.00,195.0,WeatherDisplay:10.37,2013-02-09 16:59:00,
2013-02-09 12:04:00,18.2,15.2,29.77,WNW,298,11.5,11.5,88,0.00,BKN,,0.00,193.0,WeatherDisplay:10.37,2013-02-09 17:04:00,
2013-02-09 12:09:00,18.2,15.2,29.78,WNW,297,19.6,19.6,88,0.00,BKN,,0.00,197.0,WeatherDisplay:10.37,2013-02-09 17:09:00,
2013-02-09 12:14:00,18.3,15.1,29.78,NW,309,18.4,18.4,87,0.00,BKN,,0.00,197.0,WeatherDisplay:10.37,2013-02-09 17:14:00,
2013-02-09 12:19:00,18.3,15.1,29.78,WNW,298,16.1,16.1,87,0.00,BKN,,0.00,206.0,WeatherDisplay:10.37,2013-02-09 17:19:00,
2013-02-09 12:24:00,18.4,14.9,29.78,WNW,284,15.0,15.0,86,0.00,BKN,,0.00,206.0,WeatherDisplay:10.37,2013-02-09 17:24:00,
2013-02-09 12:29:00,18.4,14.9,29.78,WNW,292,16.1,16.1,86,0.00,BKN,,0.00,204.0,WeatherDisplay:10.37,2013-02-09 17:29:00,
2013-02-09 12:34:00,18.4,14.9,29.78,WNW,291,18.4,18.4,86,0.00,BKN,,0.00,216.0,WeatherDisplay:10.37,2013-02-09 17:34:00,
2013-02-09 12:39:00,18.4,14.6,29.78,WNW,291,26.5,26.5,85,0.00,BKN,,0.00,225.0,WeatherDisplay:10.37,2013-02-09 17:39:00,
2013-02-09 12:44:00,18.4,14.6,29.78,WNW,284,24.0,24.0,85,0.00,BKN,,0.00,213.0,WeatherDisplay:10.37,2013-02-09 17:44:00,
2013-02-09 12:49:00,18.3,14.3,29.78,West,263,19.6,19.6,84,0.00,BKN,,0.00,207.0,WeatherDisplay:10.37,2013-02-09 17:49:00,
2013-02-09 12:54:00,18.2,14.2,29.79,WNW,284,18.4,18.4,84,0.00,BKN,,0.00,207.0,WeatherDisplay:10.37,2013-02-09 17:54:00,
2013-02-09 12:59:00,18.2,14.2,29.79,NW,306,23.0,23.0,84,0.00,BKN,,0.00,211.0,WeatherDisplay:10.37,2013-02-09 17:59:00,
2013-02-09 13:04:00,18.0,14.0,29.79,WNW,290,19.6,19.6,84,0.00,BKN,,0.00,211.0,WeatherDisplay:10.37,2013-02-09 18:04:00,
2013-02-09 13:09:00,17.9,13.9,29.79,WNW,299,24.2,24.2,84,0.00,BKN,,0.00,200.0,WeatherDisplay:10.37,2013-02-09 18:09:00,
2013-02-09 13:14:00,17.7,13.7,29.79,West,265,23.0,23.0,84,0.00,BKN,,0.00,204.0,WeatherDisplay:10.37,2013-02-09 18:14:00,
2013-02-09 13:19:00,17.7,13.4,29.79,West,267,21.9,21.9,83,0.00,BKN,,0.00,206.0,WeatherDisplay:10.37,2013-02-09 18:19:00,
2013-02-09 13:24:00,17.6,13.3,29.80,West,275,19.6,19.6,83,0.00,BKN,,0.00,200.0,WeatherDisplay:10.37,2013-02-09 18:24:00,
2013-02-09 13:29:00,17.6,13.3,29.80,WNW,292,19.6,19.6,83,0.00,BKN,,0.00,199.0,WeatherDisplay:10.37,2013-02-09 18:29:00,
2013-02-09 13:34:00,17.4,13.1,29.80,West,265,20.7,20.7,83,0.00,BKN,,0.00,199.0,WeatherDisplay:10.37,2013-02-09 18:34:00,
2013-02-09 13:39:00,17.3,13.0,29.81,WNW,294,21.9,21.9,83,0.00,BKN,,0.00,190.0,WeatherDisplay:10.37,2013-02-09 18:39:00,
2013-02-09 13:44:00,17.3,13.0,29.81,WNW,289,28.8,28.8,83,0.00,BKN,,0.00,183.0,WeatherDisplay:10.37,2013-02-09 18:44:00,
2013-02-09 13:49:00,17.3,13.0,29.81,NW,304,24.2,24.2,83,0.00,BKN,,0.00,176.0,WeatherDisplay:10.37,2013-02-09 18:49:00,
2013-02-09 13:54:00,17.3,13.0,29.82,NW,307,25.0,25.0,83,0.00,BKN,,0.00,176.0,WeatherDisplay:10.37,2013-02-09 18:54:00,
2013-02-09 13:59:00,17.4,13.1,29.82,West,277,25.3,25.3,83,0.00,BKN,,0.00,171.0,WeatherDisplay:10.37,2013-02-09 18:59:00,
2013-02-09 14:04:00,17.5,13.2,29.82,WNW,287,15.0,15.0,83,0.00,BKN,,0.00,169.0,WeatherDisplay:10.37,2013-02-09 19:04:00,
2013-02-09 14:09:00,17.6,13.0,29.83,West,269,19.6,19.6,82,0.00,BKN,,0.00,165.0,WeatherDisplay:10.37,2013-02-09 19:09:00,
2013-02-09 14:14:00,17.7,13.1,29.83,West,269,23.0,23.0,82,0.00,BKN,,0.00,158.0,WeatherDisplay:10.37,2013-02-09 19:14:00,
2013-02-09 14:19:00,17.8,13.2,29.83,West,273,18.4,18.4,82,0.00,BKN,,0.00,155.0,WeatherDisplay:10.37,2013-02-09 19:19:00,
2013-02-09 14:24:00,17.9,13.3,29.84,NW,309,15.0,15.0,82,0.00,BKN,,0.00,148.0,WeatherDisplay:10.37,2013-02-09 19:24:00,
2013-02-09 14:29:00,18.0,13.4,29.84,West,273,12.7,12.7,82,0.00,BKN,,0.00,142.0,WeatherDisplay:10.37,2013-02-09 19:29:00,
2013-02-09 14:34:00,18.1,13.5,29.84,WNW,293,12.0,20.0,82,0.00,BKN,,0.00,139.0,WeatherDisplay:10.37,2013-02-09 19:34:00,
2013-02-09 14:40:00,18.2,13.6,29.85,SW,231,12.7,12.7,82,0.00,BKN,,0.00,130.0,WeatherDisplay:10.37,2013-02-09 19:40:00,
2013-02-09 14:45:00,18.1,13.5,29.85,West,276,10.0,20.0,82,0.00,BKN,,0.00,121.0,WeatherDisplay:10.37,2013-02-09 19:45:00,
2013-02-09 14:50:00,18.0,13.2,29.85,WNW,283,9.0,16.0,81,0.00,BKN,,0.00,113.0,WeatherDisplay:10.37,2013-02-09 19:50:00,
2013-02-09 14:55:00,17.9,13.3,29.87,WNW,285,9.0,15.0,82,0.00,BKN,,0.00,109.0,WeatherDisplay:10.37,2013-02-09 19:55:00,
2013-02-09 14:59:00,17.8,13.2,29.87,WNW,286,12.7,12.7,82,0.00,BKN,,0.00,104.0,WeatherDisplay:10.37,2013-02-09 19:59:00,
2013-02-09 15:05:00,17.7,12.9,29.87,NW,315,19.6,19.6,81,0.00,BKN,,0.00,97.0,WeatherDisplay:10.37,2013-02-09 20:05:00,
2013-02-09 15:10:00,17.7,12.9,29.87,West,275,13.8,13.8,81,0.00,BKN,,0.00,95.0,WeatherDisplay:10.37,2013-02-09 20:10:00,
2013-02-09 15:15:00,17.7,12.9,29.87,WNW,282,7.0,18.0,81,0.00,BKN,,0.00,90.0,WeatherDisplay:10.37,2013-02-09 20:15:00,
2013-02-09 15:20:00,17.7,12.9,29.87,WNW,283,9.0,20.0,81,0.00,BKN,,0.00,83.0,WeatherDisplay:10.37,2013-02-09 20:20:00,
2013-02-09 15:24:00,17.7,12.9,29.88,WNW,292,10.0,15.0,81,0.00,BKN,,0.00,76.0,WeatherDisplay:10.37,2013-02-09 20:24:00,
2013-02-09 15:29:00,17.7,12.9,29.88,WNW,284,13.0,13.0,81,0.00,BKN,,0.00,69.0,WeatherDisplay:10.37,2013-02-09 20:29:00,
2013-02-09 15:34:00,17.6,13.1,29.88,WNW,291,9.0,20.0,82,0.00,BKN,,0.00,65.0,WeatherDisplay:10.37,2013-02-09 20:34:00,
2013-02-09 15:40:00,17.6,13.0,29.89,WNW,292,8.0,18.0,82,0.00,BKN,,0.00,63.0,WeatherDisplay:10.37,2013-02-09 20:40:00,
2013-02-09 15:45:00,17.5,12.9,29.89,WNW,301,18.0,18.0,82,0.00,BKN,,0.00,62.0,WeatherDisplay:10.37,2013-02-09 20:45:00,
2013-02-09 15:50:00,17.5,12.9,29.89,WNW,284,6.0,18.0,82,0.00,BKN,,0.00,56.0,WeatherDisplay:10.37,2013-02-09 20:50:00,
2013-02-09 15:54:00,17.5,12.9,29.91,NW,325,13.8,13.8,82,0.00,BKN,,0.00,54.0,WeatherDisplay:10.37,2013-02-09 20:54:00,
2013-02-09 15:59:00,17.4,12.8,29.91,WNW,287,12.0,12.0,82,0.00,BKN,,0.00,51.0,WeatherDisplay:10.37,2013-02-09 20:59:00,
2013-02-09 16:04:00,17.4,12.8,29.91,WNW,293,6.0,13.0,82,0.00,BKN,,0.00,47.0,WeatherDisplay:10.37,2013-02-09 21:04:00,
2013-02-09 16:10:00,17.4,12.8,29.92,WNW,290,9.0,17.0,82,0.00,BKN,,0.00,44.0,WeatherDisplay:10.37,2013-02-09 21:10:00,
2013-02-09 16:15:00,17.3,12.7,29.92,NW,314,17.0,17.0,82,0.00,BKN,,0.00,42.0,WeatherDisplay:10.37,2013-02-09 21:15:00,
2013-02-09 16:20:00,17.2,12.9,29.92,West,280,8.0,21.0,83,0.00,BKN,,0.00,42.0,WeatherDisplay:10.37,2013-02-09 21:20:00,
2013-02-09 16:24:00,17.1,12.8,29.92,West,266,15.0,15.0,83,0.00,SCT,,0.00,40.0,WeatherDisplay:10.37,2013-02-09 21:24:00,
2013-02-09 16:30:00,17.0,13.0,29.92,WNW,296,15.0,15.0,84,0.00,SCT,,0.00,35.0,WeatherDisplay:10.37,2013-02-09 21:30:00,
2013-02-09 16:35:00,17.0,13.0,29.92,WNW,286,11.5,11.5,84,0.00,SCT,,0.00,32.0,WeatherDisplay:10.37,2013-02-09 21:35:00,
2013-02-09 16:40:00,17.0,13.0,29.94,WNW,294,10.0,20.0,84,0.00,SCT,,0.00,25.0,WeatherDisplay:10.37,2013-02-09 21:40:00,
2013-02-09 16:45:00,16.9,12.9,29.94,WNW,296,1.0,20.0,84,0.00,SCT,,0.00,19.0,WeatherDisplay:10.37,2013-02-09 21:45:00,
2013-02-09 16:50:00,16.9,12.9,29.94,WNW,292,7.0,17.0,84,0.00,SCT,,0.00,16.0,WeatherDisplay:10.37,2013-02-09 21:50:00,
2013-02-09 16:55:00,16.9,12.9,29.95,SW,233,11.5,11.5,84,0.00,CLR,,0.00,14.0,WeatherDisplay:10.37,2013-02-09 21:55:00,
2013-02-09 17:00:00,16.9,12.6,29.95,WNW,284,17.3,17.3,83,0.00,CLR,,0.00,9.0,WeatherDisplay:10.37,2013-02-09 22:00:00,
2013-02-09 17:05:00,16.9,12.6,29.95,WNW,284,20.0,20.0,83,0.00,CLR,,0.00,9.0,WeatherDisplay:10.37,2013-02-09 22:05:00,
2013-02-09 17:10:00,16.9,12.6,29.95,WNW,287,16.1,16.1,83,0.00,CLR,,0.00,5.0,WeatherDisplay:10.37,2013-02-09 22:10:00,
2013-02-09 17:15:00,16.9,12.4,29.95,West,271,17.3,17.3,82,0.00,CLR,,0.00,0.0,WeatherDisplay:10.37,2013-02-09 22:15:00,
2013-02-09 17:20:00,17.0,12.5,29.95,WSW,250,20.7,20.7,82,0.00,CLR,,0.00,0.0,WeatherDisplay:10.37,2013-02-09 22:20:00,
2013-02-09 17:25:00,17.0,12.2,29.96,WNW,291,17.3,17.3,81,0.00,CLR,,0.00,0.0,WeatherDisplay:10.37,2013-02-09 22:25:00,
2013-02-09 17:30:00,17.0,12.2,29.96,WNW,285,20.7,20.7,81,0.00,CLR,,0.00,0.0,WeatherDisplay:10.37,2013-02-09 22:30:00,
2013-02-09 17:35:00,17.2,12.4,29.96,West,271,19.6,19.6,81,0.00,CLR,,0.00,0.0,WeatherDisplay:10.37,2013-02-09 22:35:00,
2013-02-09 17:40:00,17.2,12.1,29.97,West,280,18.4,18.4,80,0.00,CLR,,0.00,0.0,WeatherDisplay:10.37,2013-02-09 22:40:00,
2013-02-09 17:45:00,17.3,12.2,29.97,West,268,21.9,21.9,80,0.00,CLR,,0.00,0.0,WeatherDisplay:10.37,2013-02-09 22:45:00,
2013-02-09 17:50:00,17.3,12.2,29.97,West,274,16.1,16.1,80,0.00,CLR,,0.00,0.0,WeatherDisplay:10.37,2013-02-09 22:50:00,
2013-02-09 17:55:00,17.3,12.2,29.97,WNW,302,13.8,13.8,80,0.00,CLR,,0.00,0.0,WeatherDisplay:10.37,2013-02-09 22:55:00,
2013-02-09 18:00:00,17.3,11.9,29.97,WNW,298,19.6,19.6,79,0.00,CLR,,0.00,0.0,WeatherDisplay:10.37,2013-02-09 23:00:00,
2013-02-09 18:05:00,17.3,11.9,29.97,West,263,11.5,11.5,79,0.00,CLR,,0.00,0.0,WeatherDisplay:10.37,2013-02-09 23:05:00,
2013-02-09 18:10:00,17.3,11.9,29.98,WNW,292,6.9,6.9,79,0.00,CLR,,0.00,0.0,WeatherDisplay:10.37,2013-02-09 23:10:00,
2013-02-09 18:15:00,17.2,11.8,29.98,WNW,287,6.9,6.9,79,0.00,CLR,,0.00,0.0,WeatherDisplay:10.37,2013-02-09 23:15:00,
2013-02-09 18:20:00,17.2,11.5,29.98,WNW,286,14.0,14.0,78,0.00,CLR,,0.00,0.0,WeatherDisplay:10.37,2013-02-09 23:20:00,
2013-02-09 18:25:00,17.3,11.6,29.98,WNW,294,15.0,15.0,78,0.00,CLR,,0.00,0.0,WeatherDisplay:10.37,2013-02-09 23:25:00,
2013-02-09 18:30:00,17.3,11.6,29.98,West,275,15.0,15.0,78,0.00,CLR,,0.00,0.0,WeatherDisplay:10.37,2013-02-09 23:30:00,
2013-02-09 18:35:00,17.3,11.6,29.98,SW,232,18.4,18.4,78,0.00,CLR,,0.00,0.0,WeatherDisplay:10.37,2013-02-09 23:35:00,
2013-02-09 18:40:00,17.3,11.6,29.99,West,279,14.0,14.0,78,0.00,CLR,,0.00,0.0,WeatherDisplay:10.37,2013-02-09 23:40:00,
2013-02-09 18:45:00,17.3,11.6,29.99,West,279,12.7,12.7,78,0.00,CLR,,0.00,0.0,WeatherDisplay:10.37,2013-02-09 23:45:00,
2013-02-09 18:50:00,17.4,11.7,29.99,NW,311,10.4,10.4,78,0.00,CLR,,0.00,0.0,WeatherDisplay:10.37,2013-02-09 23:50:00,
2013-02-09 18:55:00,17.4,11.7,30.00,WNW,283,10.4,10.4,78,0.00,CLR,,0.00,0.0,WeatherDisplay:10.37,2013-02-09 23:55:00,
2013-02-09 19:00:00,17.3,11.6,30.00,West,270,17.3,17.3,78,0.00,CLR,,0.00,0.0,WeatherDisplay:10.37,2013-02-10 00:00:00,
2013-02-09 19:05:00,17.3,11.6,30.00,West,273,16.1,16.1,78,0.00,CLR,,0.00,0.0,WeatherDisplay:10.37,2013-02-10 00:05:00,
2013-02-09 19:10:00,17.4,11.7,30.01,West,269,6.9,6.9,78,0.00,CLR,,0.00,0.0,WeatherDisplay:10.37,2013-02-10 00:10:00,
2013-02-09 19:15:00,17.3,11.6,30.01,WNW,291,10.4,10.4,78,0.00,CLR,,0.00,0.0,WeatherDisplay:10.37,2013-02-10 00:15:00,
2013-02-09 19:20:00,17.4,11.7,30.01,West,272,12.7,12.7,78,0.00,CLR,,0.00,0.0,WeatherDisplay:10.37,2013-02-10 00:20:00,
2013-02-09 19:25:00,17.5,11.8,30.01,WNW,286,11.5,11.5,78,0.00,CLR,,0.00,0.0,WeatherDisplay:10.37,2013-02-10 00:25:00,
2013-02-09 19:30:00,17.5,11.8,30.01,WNW,299,16.1,16.1,78,0.00,CLR,,0.00,0.0,WeatherDisplay:10.37,2013-02-10 00:30:00,
2013-02-09 19:35:00,17.5,11.8,30.01,WSW,256,11.0,11.0,78,0.00,CLR,,0.00,0.0,WeatherDisplay:10.37,2013-02-10 00:35:00,
2013-02-09 19:40:00,17.5,11.8,30.02,West,278,13.8,13.8,78,0.00,CLR,,0.00,0.0,WeatherDisplay:10.37,2013-02-10 00:40:00,
2013-02-09 19:45:00,17.5,11.8,30.02,West,281,11.5,11.5,78,0.00,CLR,,0.00,0.0,WeatherDisplay:10.37,2013-02-10 00:45:00,
2013-02-09 19:50:00,17.6,11.9,30.02,West,265,14.0,14.0,78,0.00,CLR,,0.00,0.0,WeatherDisplay:10.37,2013-02-10 00:50:00,
2013-02-09 19:55:00,17.5,11.8,30.02,WNW,287,13.8,13.8,78,0.00,CLR,,0.00,0.0,WeatherDisplay:10.37,2013-02-10 00:55:00,
2013-02-09 20:00:00,17.6,11.9,30.02,West,264,6.0,6.0,78,0.00,CLR,,0.00,0.0,WeatherDisplay:10.37,2013-02-10 01:00:00,
2013-02-09 20:05:00,17.5,11.8,30.02,West,280,11.5,11.5,78,0.00,CLR,,0.00,0.0,WeatherDisplay:10.37,2013-02-10 01:05:00,
2013-02-09 20:10:00,17.5,11.5,30.03,NW,306,4.6,4.6,77,0.00,CLR,,0.00,0.0,WeatherDisplay:10.37,2013-02-10 01:10:00,
2013-02-09 20:15:00,17.5,11.5,30.03,WNW,288,13.8,13.8,77,0.00,CLR,,0.00,0.0,WeatherDisplay:10.37,2013-02-10 01:15:00,
2013-02-09 20:20:00,17.4,11.4,30.03,WNW,298,16.0,16.0,77,0.00,CLR,,0.00,0.0,WeatherDisplay:10.37,2013-02-10 01:20:00,
2013-02-09 20:25:00,17.4,11.4,30.03,NW,308,11.5,11.5,77,0.00,CLR,,0.00,0.0,WeatherDisplay:10.37,2013-02-10 01:25:00,
2013-02-09 20:30:00,17.5,11.5,30.03,WNW,297,18.4,18.4,77,0.00,CLR,,0.00,0.0,WeatherDisplay:10.37,2013-02-10 01:30:00,
2013-02-09 20:35:00,17.5,11.2,30.03,West,279,18.0,18.0,76,0.00,CLR,,0.00,0.0,WeatherDisplay:10.37,2013-02-10 01:35:00,
2013-02-09 20:40:00,17.5,11.2,30.03,West,281,11.5,11.5,76,0.00,CLR,,0.00,0.0,WeatherDisplay:10.37,2013-02-10 01:40:00,
2013-02-09 20:45:00,17.4,11.1,30.03,WNW,286,18.0,18.0,76,0.00,CLR,,0.00,0.0,WeatherDisplay:10.37,2013-02-10 01:45:00,
2013-02-09 20:50:00,17.4,11.1,30.03,WNW,290,15.0,15.0,76,0.00,CLR,,0.00,0.0,WeatherDisplay:10.37,2013-02-10 01:50:00,
2013-02-09 20:55:00,17.4,11.1,30.04,West,281,15.0,15.0,76,0.00,CLR,,0.00,0.0,WeatherDisplay:10.37,2013-02-10 01:55:00,
2013-02-09 21:00:00,17.4,11.1,30.04,WSW,240,23.0,23.0,76,0.00,CLR,,0.00,0.0,WeatherDisplay:10.37,2013-02-10 02:00:00,
2013-02-09 21:05:00,17.4,11.1,30.04,WSW,258,18.4,18.4,76,0.00,CLR,,0.00,0.0,WeatherDisplay:10.37,2013-02-10 02:05:00,
2013-02-09 21:10:00,17.4,10.8,30.04,NW,306,21.9,21.9,75,0.00,CLR,,0.00,0.0,WeatherDisplay:10.37,2013-02-10 02:10:00,
2013-02-09 21:15:00,17.3,10.7,30.04,WNW,292,16.1,16.1,75,0.00,CLR,,0.00,0.0,WeatherDisplay:10.37,2013-02-10 02:15:00,
2013-02-09 21:20:00,17.4,10.8,30.04,West,263,20.7,20.7,75,0.00,CLR,,0.00,0.0,WeatherDisplay:10.37,2013-02-10 02:20:00,
2013-02-09 21:25:00,17.5,10.9,30.06,WNW,302,17.3,17.3,75,0.00,CLR,,0.00,0.0,WeatherDisplay:10.37,2013-02-10 02:25:00,
2013-02-09 21:30:00,17.4,10.5,30.06,WNW,287,13.8,13.8,74,0.00,CLR,,0.00,0.0,WeatherDisplay:10.37,2013-02-10 02:30:00,
2013-02-09 21:35:00,17.4,10.5,30.06,West,281,12.7,12.7,74,0.00,CLR,,0.00,0.0,WeatherDisplay:10.37,2013-02-10 02:35:00,
2013-02-09 21:40:00,17.4,10.5,30.06,WNW,297,3.5,4.2,74,0.00,CLR,,0.00,0.0,WeatherDisplay:10.37,2013-02-10 02:40:00,
2013-02-09 21:45:00,17.3,10.7,30.06,West,281,20.7,20.7,75,0.00,CLR,,0.00,0.0,WeatherDisplay:10.37,2013-02-10 02:45:00,
2013-02-09 21:50:00,17.2,10.3,30.06,WNW,294,13.8,13.8,74,0.00,CLR,,0.00,0.0,WeatherDisplay:10.37,2013-02-10 02:50:00,
2013-02-09 21:56:00,17.1,10.2,30.06,West,280,17.3,17.3,74,0.00,CLR,,0.00,0.0,WeatherDisplay:10.37,2013-02-10 02:56:00,
2013-02-09 22:01:00,17.1,10.2,30.06,WNW,287,11.5,11.9,74,0.00,CLR,,0.00,0.0,WeatherDisplay:10.37,2013-02-10 03:01:00,
2013-02-09 22:06:00,17.1,10.2,30.06,NW,315,12.7,12.7,74,0.00,CLR,,0.00,0.0,WeatherDisplay:10.37,2013-02-10 03:06:00,
2013-02-09 22:11:00,17.0,10.1,30.05,West,277,10.4,10.4,74,0.00,CLR,,0.00,0.0,WeatherDisplay:10.37,2013-02-10 03:11:00,
2013-02-09 22:16:00,16.9,10.0,30.05,West,270,18.0,18.0,74,0.00,CLR,,0.00,0.0,WeatherDisplay:10.37,2013-02-10 03:16:00,
2013-02-09 22:21:00,17.0,10.1,30.05,NW,309,11.0,11.0,74,0.00,CLR,,0.00,0.0,WeatherDisplay:10.37,2013-02-10 03:21:00,
2013-02-09 22:26:00,16.8,9.6,30.05,WNW,298,16.1,16.1,73,0.00,CLR,,0.00,0.0,WeatherDisplay:10.37,2013-02-10 03:26:00,
2013-02-09 22:31:00,16.7,9.8,30.05,WNW,302,20.7,20.7,74,0.00,CLR,,0.00,0.0,WeatherDisplay:10.37,2013-02-10 03:31:00,
2013-02-09 22:36:00,16.7,9.5,30.05,WNW,294,13.8,13.8,73,0.00,CLR,,0.00,0.0,WeatherDisplay:10.37,2013-02-10 03:36:00,
2013-02-09 22:41:00,16.6,9.8,30.05,NW,323,16.1,16.1,74,0.00,CLR,,0.00,0.0,WeatherDisplay:10.37,2013-02-10 03:41:00,
2013-02-09 22:46:00,16.6,9.8,30.05,WNW,289,17.3,17.3,74,0.00,CLR,,0.00,0.0,WeatherDisplay:10.37,2013-02-10 03:46:00,
2013-02-09 22:51:00,16.6,9.4,30.05,WSW,245,12.7,12.7,73,0.00,CLR,,0.00,0.0,WeatherDisplay:10.37,2013-02-10 03:51:00,
2013-02-09 22:56:00,16.7,9.5,30.04,NW,311,16.1,16.1,73,0.00,CLR,,0.00,0.0,WeatherDisplay:10.37,2013-02-10 03:56:00,
2013-02-09 23:01:00,16.7,9.5,30.04,NNW,335,19.6,19.6,73,0.00,CLR,,0.00,0.0,WeatherDisplay:10.37,2013-02-10 04:01:00,
2013-02-09 23:06:00,16.6,9.4,30.05,WNW,288,19.6,19.6,73,0.00,CLR,,0.00,0.0,WeatherDisplay:10.37,2013-02-10 04:06:00,
2013-02-09 23:11:00,16.5,9.4,30.05,WNW,302,15.0,15.0,73,0.00,CLR,,0.00,0.0,WeatherDisplay:10.37,2013-02-10 04:11:00,
2013-02-09 23:16:00,16.6,9.4,30.05,WNW,298,15.0,15.0,73,0.00,CLR,,0.00,0.0,WeatherDisplay:10.37,2013-02-10 04:16:00,
2013-02-09 23:21:00,16.7,9.5,30.05,NW,313,21.9,21.9,73,0.00,CLR,,0.00,0.0,WeatherDisplay:10.37,2013-02-10 04:21:00,
2013-02-09 23:26:00,16.5,9.4,30.05,WSW,257,16.1,16.1,73,0.00,CLR,,0.00,0.0,WeatherDisplay:10.37,2013-02-10 04:26:00,
2013-02-09 23:31:00,16.4,9.3,30.05,WNW,292,17.3,17.3,73,0.00,CLR,,0.00,0.0,WeatherDisplay:10.37,2013-02-10 04:31:00,
2013-02-09 23:36:00,16.3,9.2,30.06,WNW,283,16.1,16.1,73,0.00,CLR,,0.00,0.0,WeatherDisplay:10.37,2013-02-10 04:36:00,
2013-02-09 23:41:00,16.3,9.2,30.06,West,271,16.1,16.1,73,0.00,CLR,,0.00,0.0,WeatherDisplay:10.37,2013-02-10 04:41:00,
2013-02-09 23:46:00,16.2,8.8,30.06,WNW,291,18.4,18.4,72,0.00,CLR,,0.00,0.0,WeatherDisplay:10.37,2013-02-10 04:46:00,
2013-02-09 23:51:00,16.1,8.7,30.06,West,269,19.6,19.6,72,0.00,CLR,,0.00,0.0,WeatherDisplay:10.37,2013-02-10 04:51:00,
2013-02-09 23:56:00,16.3,8.9,30.06,WNW,293,13.8,13.8,72,0.00,CLR,,0.00,0.0,WeatherDisplay:10.37,2013-02-10 04:56:00,